createdAt,value
2022-11-13T00:02:26.614Z,56.33
2022-11-13T00:05:00.657Z,19.98
2022-11-13T00:07:47.577Z,13.55
2022-11-13T00:10:21.679Z,17.88
2022-11-13T00:13:09.623Z,17.98
2022-11-13T00:15:43.686Z,49.00
2022-11-13T00:18:31.713Z,29.13
2022-11-13T00:21:28.567Z,37.38
2022-11-13T00:24:22.592Z,40.05
2022-11-13T00:27:09.558Z,22.88
2022-11-13T00:29:43.677Z,9.82
2022-11-13T00:32:31.589Z,10.98
2022-11-13T00:35:05.707Z,14.68
2022-11-13T00:37:52.607Z,16.30
2022-11-13T00:40:26.660Z,13.60
2022-11-13T00:43:13.602Z,18.38
2022-11-13T00:45:54.617Z,18.92
2022-11-13T00:48:49.585Z,17.58
2022-11-13T00:51:36.582Z,17.52
2022-11-13T00:54:10.663Z,21.17
2022-11-13T00:56:57.582Z,16.42
2022-11-13T00:59:31.665Z,15.65
2022-11-13T01:02:21.597Z,20.90
2022-11-13T01:07:50.600Z,10.00
2022-11-13T01:10:31.597Z,17.77
2022-11-13T01:13:18.603Z,19.98
2022-11-13T01:15:52.685Z,18.88
2022-11-13T01:18:39.586Z,24.75
2022-11-13T01:21:22.609Z,34.30
2022-11-13T01:24:16.597Z,30.02
2022-11-13T01:27:04.622Z,20.25
2022-11-13T01:29:45.601Z,15.73
2022-11-13T01:32:39.584Z,18.95
2022-11-13T01:35:26.607Z,12.13
2022-11-13T01:38:00.659Z,18.23
2022-11-13T01:40:54.602Z,16.42
2022-11-13T01:43:36.691Z,14.82
2022-11-13T01:46:29.637Z,13.57
2022-11-13T01:49:25.605Z,13.80
2022-11-13T01:52:18.619Z,13.50
2022-11-13T01:54:54.685Z,9.88
2022-11-13T01:57:42.620Z,22.77
2022-11-13T02:00:18.695Z,13.50
2022-11-13T02:03:05.609Z,9.15
2022-11-13T02:05:46.689Z,9.88
2022-11-13T02:08:40.600Z,17.05
2022-11-13T02:11:28.661Z,15.32
2022-11-13T02:14:02.701Z,21.52
2022-11-13T02:16:51.623Z,17.77
2022-11-13T02:19:39.657Z,12.73
2022-11-13T02:22:32.612Z,9.93
2022-11-13T02:25:07.665Z,10.15
2022-11-13T02:27:56.613Z,15.57
2022-11-13T02:30:32.693Z,16.17
2022-11-13T02:33:49.615Z,8.82
2022-11-13T02:36:30.612Z,12.57
2022-11-13T02:39:26.612Z,11.07
2022-11-13T02:42:13.689Z,12.55
2022-11-13T02:44:54.703Z,7.35
2022-11-13T02:47:35.609Z,10.02
2022-11-13T02:50:17.692Z,15.45
2022-11-13T02:52:57.683Z,11.70
2022-11-13T02:55:45.634Z,14.63
2022-11-13T02:58:19.572Z,18.50
2022-11-13T03:01:07.614Z,10.38
2022-11-13T03:03:57.393Z,15.52
2022-11-13T03:06:38.760Z,22.85
2022-11-13T03:09:18.611Z,9.57
2022-11-13T03:11:59.682Z,10.75
2022-11-13T03:14:40.614Z,48.05
2022-11-13T03:17:28.639Z,25.88
2022-11-13T03:20:09.633Z,21.15
2022-11-13T03:22:50.785Z,17.05
2022-11-13T03:25:30.640Z,11.68
2022-11-13T03:28:18.615Z,7.45
2022-11-13T03:31:12.635Z,15.02
2022-11-13T03:34:00.644Z,17.27
2022-11-13T03:36:47.635Z,14.00
2022-11-13T03:39:41.638Z,23.00
2022-11-13T03:45:03.720Z,15.07
2022-11-13T03:47:44.642Z,9.02
2022-11-13T03:50:24.738Z,10.13
2022-11-13T03:53:05.629Z,39.25
2022-11-13T03:55:46.643Z,47.97
2022-11-13T03:58:21.212Z,12.18
2022-11-13T04:01:07.640Z,6.88
2022-11-13T04:03:41.743Z,6.18
2022-11-13T04:06:28.646Z,9.05
2022-11-13T04:09:09.636Z,20.30
2022-11-13T04:11:56.645Z,29.10
2022-11-13T04:14:37.633Z,24.23
2022-11-13T04:17:31.644Z,19.17
2022-11-13T04:20:19.629Z,24.20
2022-11-13T04:23:01.735Z,14.98
2022-11-13T04:25:41.630Z,7.80
2022-11-13T04:28:22.688Z,12.00
2022-11-13T04:31:03.624Z,11.15
2022-11-13T04:33:44.724Z,20.83
2022-11-13T04:36:24.656Z,31.90
2022-11-13T04:39:05.736Z,28.10
2022-11-13T04:42:04.659Z,28.58
2022-11-13T04:44:45.729Z,16.60
2022-11-13T04:47:25.632Z,20.25
2022-11-13T04:50:06.763Z,21.30
2022-11-13T04:52:47.634Z,20.00
2022-11-13T04:55:28.719Z,21.35
2022-11-13T04:58:09.653Z,13.77
2022-11-13T05:00:50.692Z,8.88
2022-11-13T05:03:31.646Z,9.38
2022-11-13T05:06:13.766Z,15.38
2022-11-13T05:08:53.652Z,17.92
2022-11-13T05:11:41.656Z,18.20
2022-11-13T05:14:22.656Z,10.43
2022-11-13T05:17:03.710Z,26.48
2022-11-13T05:19:44.641Z,28.75
2022-11-13T05:22:25.714Z,21.17
2022-11-13T05:25:12.627Z,13.48
2022-11-13T05:27:59.680Z,10.40
2022-11-13T05:30:33.765Z,10.68
2022-11-13T05:33:20.638Z,10.80
2022-11-13T05:35:54.759Z,8.60
2022-11-13T05:38:42.653Z,9.23
2022-11-13T05:41:17.785Z,10.25
2022-11-13T05:44:05.664Z,15.90
2022-11-13T05:46:39.827Z,19.83
2022-11-13T05:49:26.674Z,14.27
2022-11-13T05:52:14.639Z,11.27
2022-11-13T05:54:48.612Z,14.27
2022-11-13T05:57:36.653Z,14.10
2022-11-13T06:00:10.925Z,9.55
2022-11-13T06:02:58.684Z,15.13
2022-11-13T06:05:35.360Z,16.85
2022-11-13T06:08:22.665Z,5.03
2022-11-13T06:11:07.656Z,17.75
2022-11-13T06:13:55.669Z,8.55
2022-11-13T06:16:30.939Z,15.18
2022-11-13T06:19:22.651Z,14.73
2022-11-13T06:22:02.789Z,12.18
2022-11-13T06:24:43.748Z,17.45
2022-11-13T06:27:23.687Z,15.88
2022-11-13T06:30:11.681Z,14.55
2022-11-13T06:32:45.752Z,17.52
2022-11-13T06:35:33.671Z,8.52
2022-11-13T06:38:07.612Z,8.65
2022-11-13T06:40:55.673Z,10.48
2022-11-13T06:43:36.651Z,8.48
2022-11-13T06:46:28.665Z,12.02
2022-11-13T06:49:03.712Z,11.10
2022-11-13T06:51:51.670Z,16.58
2022-11-13T06:54:26.619Z,12.65
2022-11-13T06:57:14.661Z,12.07
2022-11-13T06:59:48.619Z,21.50
2022-11-13T07:02:36.704Z,41.97
2022-11-13T07:05:10.630Z,20.83
2022-11-13T07:07:58.660Z,17.88
2022-11-13T07:10:32.625Z,14.95
2022-11-13T07:13:20.665Z,15.80
2022-11-13T07:15:54.633Z,16.25
2022-11-13T07:18:42.678Z,14.68
2022-11-13T07:21:16.640Z,10.57
2022-11-13T07:24:04.684Z,11.30
2022-11-13T07:26:44.665Z,11.95
2022-11-13T07:29:25.733Z,14.70
2022-11-13T07:32:05.696Z,17.17
2022-11-13T07:34:46.797Z,13.23
2022-11-13T07:37:26.666Z,12.30
2022-11-13T07:40:07.771Z,9.43
2022-11-13T07:42:48.696Z,12.02
2022-11-13T07:45:36.674Z,10.10
2022-11-13T07:48:10.736Z,13.30
2022-11-13T07:50:58.702Z,10.35
2022-11-13T07:53:39.669Z,15.38
2022-11-13T07:56:29.799Z,19.02
2022-11-13T07:59:03.650Z,12.75
2022-11-13T08:01:51.687Z,12.73
2022-11-13T08:04:45.694Z,12.27
2022-11-13T08:07:32.703Z,10.88
2022-11-13T08:10:13.667Z,13.18
2022-11-13T08:13:11.675Z,10.90
2022-11-13T08:15:52.698Z,12.80
2022-11-13T08:18:47.683Z,19.33
2022-11-13T08:21:34.689Z,15.77
2022-11-13T08:24:08.787Z,13.55
2022-11-13T08:26:55.710Z,15.25
2022-11-13T08:29:43.661Z,14.02
2022-11-13T08:32:25.721Z,17.70
2022-11-13T08:35:18.776Z,12.35
2022-11-13T08:37:59.698Z,11.40
2022-11-13T08:40:47.733Z,14.77
2022-11-13T08:43:21.693Z,12.25
2022-11-13T08:46:09.701Z,15.77
2022-11-13T08:48:49.712Z,10.20
2022-11-13T08:51:30.784Z,13.57
2022-11-13T08:54:11.701Z,14.57
2022-11-13T08:56:57.243Z,14.40
2022-11-13T08:59:39.705Z,17.58
2022-11-13T09:02:21.752Z,19.95
2022-11-13T09:05:01.711Z,12.82
2022-11-13T09:07:55.698Z,14.23
2022-11-13T09:10:43.694Z,9.45
2022-11-13T09:13:17.762Z,11.57
2022-11-13T09:16:09.720Z,11.15
2022-11-13T09:18:43.766Z,14.93
2022-11-13T09:21:31.718Z,13.60
2022-11-13T09:24:12.734Z,12.82
2022-11-13T09:27:00.689Z,22.77
2022-11-13T09:29:42.715Z,11.68
2022-11-13T09:32:30.709Z,9.65
2022-11-13T09:35:11.737Z,12.88
2022-11-13T09:38:10.996Z,11.25
2022-11-13T09:41:16.702Z,17.00
2022-11-13T09:44:00.715Z,16.92
2022-11-13T09:46:54.694Z,8.02
2022-11-13T09:49:45.727Z,15.10
2022-11-13T09:52:34.714Z,8.85
2022-11-13T09:55:33.711Z,9.98
2022-11-13T09:58:28.944Z,11.48
2022-11-13T10:01:03.816Z,9.65
2022-11-13T10:04:02.402Z,10.38
2022-11-13T10:06:43.815Z,9.82
2022-11-13T10:09:39.743Z,12.88
2022-11-13T10:12:22.708Z,9.68
2022-11-13T10:15:18.694Z,9.95
2022-11-13T10:18:14.724Z,7.45
2022-11-13T10:21:03.376Z,13.32
2022-11-13T10:23:56.737Z,9.30
2022-11-13T10:26:38.739Z,11.43
2022-11-13T10:29:27.737Z,8.98
2022-11-13T10:32:01.893Z,13.98
2022-11-13T10:34:50.747Z,8.93
2022-11-13T10:37:37.741Z,9.13
2022-11-13T10:40:34.721Z,9.63
2022-11-13T10:43:15.405Z,7.07
2022-11-13T10:46:05.698Z,9.80
2022-11-13T10:48:43.803Z,8.32
2022-11-13T10:51:33.718Z,9.27
2022-11-13T10:54:14.728Z,9.30
2022-11-13T10:57:12.706Z,9.95
2022-11-13T10:59:47.821Z,8.32
2022-11-13T11:02:35.734Z,7.90
2022-11-13T11:05:21.852Z,9.38
2022-11-13T11:08:16.734Z,6.90
2022-11-13T11:11:19.534Z,8.68
2022-11-13T11:14:24.741Z,8.82
2022-11-13T11:17:05.846Z,17.60
2022-11-13T11:19:55.726Z,12.48
2022-11-13T11:22:51.738Z,6.60
2022-11-13T11:25:43.784Z,12.55
2022-11-13T11:28:50.740Z,8.32
2022-11-13T11:31:49.721Z,9.90
2022-11-13T11:34:39.746Z,7.60
2022-11-13T11:40:10.765Z,9.38
2022-11-13T11:43:01.812Z,11.00
2022-11-13T11:45:51.792Z,12.55
2022-11-13T11:48:28.168Z,10.75
2022-11-13T11:51:32.743Z,11.57
2022-11-13T11:54:15.822Z,10.38
2022-11-13T11:57:12.735Z,12.13
2022-11-13T12:00:06.350Z,9.88
2022-11-13T12:03:11.738Z,12.38
2022-11-13T12:05:45.855Z,9.63
2022-11-13T12:08:53.739Z,10.77
2022-11-13T12:11:38.839Z,7.97
2022-11-13T12:14:26.772Z,11.63
2022-11-13T12:17:17.417Z,9.18
2022-11-13T12:20:21.758Z,13.15
2022-11-13T12:22:59.368Z,10.23
2022-11-13T12:28:40.840Z,9.95
2022-11-13T12:31:45.760Z,7.95
2022-11-13T12:34:29.949Z,6.40
2022-11-13T12:37:17.760Z,10.57
2022-11-13T12:40:06.834Z,12.68
2022-11-13T12:43:11.759Z,8.00
2022-11-13T12:45:52.887Z,11.68
2022-11-13T12:48:34.750Z,11.95
2022-11-13T12:51:16.906Z,12.57
2022-11-13T12:54:01.766Z,10.15
2022-11-13T12:56:49.788Z,9.65
2022-11-13T12:59:30.850Z,14.38
2022-11-13T13:02:21.759Z,14.77
2022-11-13T13:05:17.775Z,8.43
2022-11-13T13:08:11.854Z,10.55
2022-11-13T13:10:57.776Z,9.77
2022-11-13T13:14:04.745Z,11.57
2022-11-13T13:16:44.810Z,21.05
2022-11-13T13:19:28.942Z,15.55
2022-11-13T13:22:09.753Z,18.00
2022-11-13T13:24:50.877Z,16.88
2022-11-13T13:27:32.785Z,28.33
2022-11-13T13:30:28.142Z,24.00
2022-11-13T13:33:42.766Z,16.50
2022-11-13T13:36:53.789Z,15.82
2022-11-13T13:39:33.360Z,16.63
2022-11-13T13:42:20.758Z,17.58
2022-11-13T13:45:19.504Z,29.40
2022-11-13T13:48:10.798Z,26.88
2022-11-13T13:50:49.212Z,19.27
2022-11-13T13:53:38.759Z,21.23
2022-11-13T13:56:20.814Z,36.55
2022-11-13T13:59:01.882Z,77.28
2022-11-13T14:01:42.878Z,25.23
2022-11-13T14:04:28.858Z,24.35
2022-11-13T14:07:09.857Z,26.45
2022-11-13T14:09:50.854Z,22.33
2022-11-13T14:12:30.789Z,12.85
2022-11-13T14:15:19.800Z,9.98
2022-11-13T14:17:53.945Z,11.60
2022-11-13T14:20:41.789Z,10.18
2022-11-13T14:23:27.787Z,11.07
2022-11-13T14:26:11.902Z,15.00
2022-11-13T14:29:03.820Z,20.27
2022-11-13T14:31:46.799Z,19.13
2022-11-13T14:34:50.804Z,22.05
2022-11-13T14:37:49.781Z,18.38
2022-11-13T14:40:39.791Z,11.27
2022-11-13T14:46:02.811Z,17.95
2022-11-13T14:48:45.822Z,10.88
2022-11-13T14:51:34.812Z,29.83
2022-11-13T14:54:18.829Z,20.17
2022-11-13T14:57:20.820Z,16.92
2022-11-13T14:59:54.854Z,17.55
2022-11-13T15:02:42.796Z,17.95
2022-11-13T15:05:16.971Z,13.15
2022-11-13T15:08:04.814Z,18.05
2022-11-13T15:10:38.843Z,13.07
2022-11-13T15:13:26.088Z,33.47
2022-11-13T15:15:59.881Z,29.70
2022-11-13T15:18:47.810Z,45.97
2022-11-13T15:21:28.785Z,23.13
2022-11-13T15:24:26.846Z,18.13
2022-11-13T15:27:14.840Z,22.30
2022-11-13T15:29:55.913Z,23.65
2022-11-13T15:32:37.800Z,17.50
2022-11-13T15:35:30.805Z,22.58
2022-11-13T15:38:04.913Z,22.70
2022-11-13T15:40:52.812Z,81.65
2022-11-13T15:43:28.051Z,44.63
2022-11-13T15:46:17.822Z,68.22
2022-11-13T15:51:46.832Z,22.90
2022-11-13T15:54:38.804Z,23.48
2022-11-13T15:57:22.892Z,24.98
2022-11-13T16:00:10.831Z,20.13
2022-11-13T16:02:45.633Z,14.60
2022-11-13T16:05:33.813Z,17.85
2022-11-13T16:08:21.832Z,14.50
2022-11-13T16:11:09.815Z,11.82
2022-11-13T16:13:50.824Z,12.32
2022-11-13T16:16:43.876Z,36.25
2022-11-13T16:19:29.834Z,16.23
2022-11-13T16:22:10.889Z,17.50
2022-11-13T16:24:50.817Z,19.67
2022-11-13T16:27:41.826Z,33.70
2022-11-13T16:30:23.816Z,30.92
2022-11-13T16:33:14.835Z,46.25
2022-11-13T16:35:55.827Z,47.40
2022-11-13T16:38:43.837Z,49.40
2022-11-13T16:41:17.780Z,38.90
2022-11-13T16:44:05.820Z,27.90
2022-11-13T16:46:47.832Z,23.90
2022-11-13T16:49:28.884Z,28.42
2022-11-13T16:52:08.835Z,27.73
2022-11-13T16:55:02.233Z,20.52
2022-11-13T16:57:45.872Z,19.33
2022-11-13T17:00:26.948Z,22.75
2022-11-13T17:03:13.838Z,30.05
2022-11-13T17:05:47.915Z,35.60
2022-11-13T17:08:34.846Z,46.97
2022-11-13T17:11:08.897Z,74.32
2022-11-13T17:14:00.848Z,82.70
2022-11-13T17:16:35.933Z,77.78
2022-11-13T17:19:23.846Z,70.95
2022-11-13T17:21:57.958Z,57.10
2022-11-13T17:24:45.858Z,55.55
2022-11-13T17:27:19.953Z,40.78
2022-11-13T17:30:07.847Z,25.23
2022-11-13T17:32:48.830Z,28.58
2022-11-13T17:35:35.841Z,27.85
2022-11-13T17:38:16.844Z,21.08
2022-11-13T17:41:17.876Z,21.83
2022-11-13T17:44:05.860Z,19.17
2022-11-13T17:46:39.995Z,19.80
2022-11-13T17:49:27.842Z,14.90
2022-11-13T17:52:02.113Z,17.58
2022-11-13T17:54:48.838Z,12.77
2022-11-13T17:57:29.847Z,13.70
2022-11-13T18:00:17.840Z,17.92
2022-11-13T18:02:52.185Z,14.77
2022-11-13T18:05:40.903Z,14.15
2022-11-13T18:08:21.876Z,23.05
2022-11-13T18:11:21.846Z,39.00
2022-11-13T18:14:08.857Z,36.08
2022-11-13T18:16:42.908Z,24.65
2022-11-13T18:19:29.946Z,24.35
2022-11-13T18:22:10.843Z,19.73
2022-11-13T18:24:57.877Z,25.00
2022-11-13T18:27:45.847Z,28.13
2022-11-13T18:30:19.834Z,26.73
2022-11-13T18:33:07.841Z,27.98
2022-11-13T18:35:47.877Z,23.98
2022-11-13T18:38:28.908Z,27.90
2022-11-13T18:41:16.841Z,30.13
2022-11-13T18:43:57.988Z,41.47
2022-11-13T18:46:38.855Z,34.08
2022-11-13T18:49:19.932Z,34.67
2022-11-13T18:51:59.848Z,61.75
2022-11-13T18:54:40.909Z,45.53
2022-11-13T18:57:21.864Z,28.50
2022-11-13T19:00:03.440Z,26.90
2022-11-13T19:02:42.883Z,20.75
2022-11-13T19:05:30.884Z,29.33
2022-11-13T19:08:04.891Z,21.17
2022-11-13T19:10:53.855Z,29.20
2022-11-13T19:13:27.790Z,30.83
2022-11-13T19:16:23.882Z,25.90
2022-11-13T19:19:04.873Z,28.95
2022-11-13T19:21:52.864Z,32.80
2022-11-13T19:24:46.848Z,44.33
2022-11-13T19:27:33.888Z,87.60
2022-11-13T19:30:14.859Z,60.42
2022-11-13T19:33:01.878Z,41.97
2022-11-13T19:35:35.934Z,43.03
2022-11-13T19:38:23.871Z,33.78
2022-11-13T19:40:58.970Z,24.48
2022-11-13T19:43:46.872Z,25.38
2022-11-13T19:46:28.920Z,38.22
2022-11-13T19:49:22.880Z,78.70
2022-11-13T19:54:51.893Z,58.28
2022-11-13T19:57:44.832Z,59.85
2022-11-13T20:00:21.028Z,52.58
2022-11-13T20:03:08.079Z,44.35
2022-11-13T20:05:41.912Z,41.17
2022-11-13T20:08:30.186Z,37.95
2022-11-13T20:11:11.931Z,36.72
2022-11-13T20:13:58.901Z,35.22
2022-11-13T20:16:40.881Z,31.65
2022-11-13T20:19:28.914Z,24.75
2022-11-13T20:22:09.894Z,24.27
2022-11-13T20:25:03.859Z,30.48
2022-11-13T20:27:53.880Z,31.90
2022-11-13T20:30:27.937Z,30.23
2022-11-13T20:33:23.009Z,28.50
2022-11-13T20:36:10.890Z,26.95
2022-11-13T20:38:51.869Z,24.63
2022-11-13T20:41:45.850Z,21.80
2022-11-13T20:44:32.896Z,25.40
2022-11-13T20:47:13.893Z,23.15
2022-11-13T20:50:08.071Z,31.63
2022-11-13T20:52:54.894Z,36.28
2022-11-13T20:55:28.949Z,30.17
2022-11-13T20:58:15.869Z,31.13
2022-11-13T21:00:56.903Z,33.22
2022-11-13T21:03:45.886Z,27.33
2022-11-13T21:06:25.325Z,33.70
2022-11-13T21:09:11.929Z,29.23
2022-11-13T21:11:59.896Z,31.92
2022-11-13T21:14:46.906Z,26.67
2022-11-13T21:17:20.927Z,23.95
2022-11-13T21:20:07.930Z,23.45
2022-11-13T21:22:41.952Z,27.55
2022-11-13T21:25:29.900Z,24.83
2022-11-13T21:28:10.907Z,32.78
2022-11-13T21:31:04.887Z,27.08
2022-11-13T21:33:52.933Z,34.58
2022-11-13T21:36:34.912Z,31.73
2022-11-13T21:39:28.903Z,26.20
2022-11-13T21:42:15.919Z,21.95
2022-11-13T21:44:50.014Z,23.75
2022-11-13T21:47:36.914Z,24.60
2022-11-13T21:50:18.897Z,24.17
2022-11-13T21:53:05.908Z,20.73
2022-11-13T21:55:39.946Z,19.17
2022-11-13T21:58:38.917Z,24.80
2022-11-13T22:01:19.995Z,22.45
2022-11-13T22:04:00.916Z,21.13
2022-11-13T22:06:48.938Z,21.65
2022-11-13T22:09:24.225Z,17.52
2022-11-13T22:12:11.931Z,16.33
2022-11-13T22:14:51.915Z,22.92
2022-11-13T22:17:39.928Z,20.77
2022-11-13T22:20:13.530Z,24.30
2022-11-13T22:23:00.901Z,27.10
2022-11-13T22:25:34.976Z,29.77
2022-11-13T22:28:22.918Z,22.88
2022-11-13T22:30:56.984Z,23.92
2022-11-13T22:33:50.449Z,19.20
2022-11-13T22:36:30.907Z,16.55
2022-11-13T22:39:18.955Z,21.30
2022-11-13T22:41:52.856Z,22.58
2022-11-13T22:44:55.388Z,15.55
2022-11-13T22:47:38.150Z,21.55
2022-11-13T22:50:18.967Z,10.10
2022-11-13T22:52:59.918Z,12.43
2022-11-13T22:55:41.059Z,9.88
2022-11-13T22:58:20.920Z,13.73
2022-11-13T23:01:08.905Z,13.60
2022-11-13T23:03:44.595Z,15.02
2022-11-13T23:06:33.916Z,11.95
2022-11-13T23:09:07.911Z,10.75
2022-11-13T23:11:55.916Z,16.55
2022-11-13T23:14:29.834Z,8.52
2022-11-13T23:17:17.912Z,13.90
2022-11-13T23:19:51.881Z,9.65
2022-11-13T23:22:39.934Z,13.23
2022-11-13T23:25:33.891Z,13.45
2022-11-13T23:28:20.945Z,13.00
2022-11-13T23:30:54.986Z,9.63
2022-11-13T23:33:42.905Z,9.43
2022-11-13T23:36:18.276Z,8.77
2022-11-13T23:39:04.908Z,12.80
2022-11-13T23:41:45.947Z,14.68
2022-11-13T23:44:39.924Z,11.40
2022-11-13T23:47:26.904Z,7.30
2022-11-13T23:50:00.995Z,11.40
2022-11-13T23:52:47.931Z,9.55
2022-11-13T23:55:23.631Z,7.53
2022-11-13T23:58:11.916Z,11.23
